sensor_id;sensor_type;location;lat;lon;timestamp;temperature;humidity
6758;DHT22;3416;53.074;8.822;2023-01-04T00:00:16;8.10;99.90
6758;DHT22;3416;53.074;8.822;2023-01-04T00:02:43;8.00;99.90
6758;DHT22;3416;53.074;8.822;2023-01-04T00:05:10;8.20;99.90
6758;DHT22;3416;53.074;8.822;2023-01-04T00:07:37;8.00;99.90
6758;DHT22;3416;53.074;8.822;2023-01-04T00:10:05;8.10;99.90
6758;DHT22;3416;53.074;8.822;2023-01-04T00:12:34;8.10;99.90
6758;DHT22;3416;53.074;8.822;2023-01-04T00:15:03;8.10;99.90
6758;DHT22;3416;53.074;8.822;2023-01-04T00:17:31;8.10;99.90
6758;DHT22;3416;53.074;8.822;2023-01-04T00:19:58;8.10;99.90
6758;DHT22;3416;53.074;8.822;2023-01-04T00:22:24;8.00;99.90
6758;DHT22;3416;53.074;8.822;2023-01-04T00:24:52;8.00;99.90
6758;DHT22;3416;53.074;8.822;2023-01-04T00:27:19;8.10;99.90
6758;DHT22;3416;53.074;8.822;2023-01-04T00:29:45;8.10;99.90
6758;DHT22;3416;53.074;8.822;2023-01-04T00:32:14;8.10;99.90
6758;DHT22;3416;53.074;8.822;2023-01-04T00:34:41;8.10;99.90
6758;DHT22;3416;53.074;8.822;2023-01-04T00:37:08;8.10;99.90
6758;DHT22;3416;53.074;8.822;2023-01-04T00:39:34;8.20;99.90
6758;DHT22;3416;53.074;8.822;2023-01-04T00:42:04;8.20;99.90
6758;DHT22;3416;53.074;8.822;2023-01-04T00:44:32;8.20;99.90
6758;DHT22;3416;53.074;8.822;2023-01-04T00:47:00;8.30;99.90
6758;DHT22;3416;53.074;8.822;2023-01-04T00:49:31;8.30;99.90
6758;DHT22;3416;53.074;8.822;2023-01-04T00:51:59;8.30;99.90
6758;DHT22;3416;53.074;8.822;2023-01-04T00:54:25;8.30;99.90
6758;DHT22;3416;53.074;8.822;2023-01-04T00:56:53;8.30;99.90
6758;DHT22;3416;53.074;8.822;2023-01-04T00:59:20;8.30;99.90
6758;DHT22;3416;53.074;8.822;2023-01-04T01:01:47;8.50;99.90
6758;DHT22;3416;53.074;8.822;2023-01-04T01:04:16;8.30;99.90
6758;DHT22;3416;53.074;8.822;2023-01-04T01:06:46;8.30;99.90
6758;DHT22;3416;53.074;8.822;2023-01-04T01:09:14;8.30;99.90
6758;DHT22;3416;53.074;8.822;2023-01-04T01:11:42;8.30;99.90
6758;DHT22;3416;53.074;8.822;2023-01-04T01:14:16;8.40;99.90
6758;DHT22;3416;53.074;8.822;2023-01-04T01:16:43;8.50;99.90
6758;DHT22;3416;53.074;8.822;2023-01-04T01:19:10;8.40;99.90
6758;DHT22;3416;53.074;8.822;2023-01-04T01:21:38;8.40;99.90
6758;DHT22;3416;53.074;8.822;2023-01-04T01:24:08;8.40;99.90
6758;DHT22;3416;53.074;8.822;2023-01-04T01:26:41;8.30;99.90
6758;DHT22;3416;53.074;8.822;2023-01-04T01:29:08;8.40;99.90
6758;DHT22;3416;53.074;8.822;2023-01-04T01:31:35;8.40;99.90
6758;DHT22;3416;53.074;8.822;2023-01-04T01:34:05;8.50;99.90
6758;DHT22;3416;53.074;8.822;2023-01-04T01:36:32;8.40;99.90
6758;DHT22;3416;53.074;8.822;2023-01-04T01:38:59;8.50;99.90
6758;DHT22;3416;53.074;8.822;2023-01-04T01:41:29;8.50;99.90
6758;DHT22;3416;53.074;8.822;2023-01-04T01:43:58;8.50;99.90
6758;DHT22;3416;53.074;8.822;2023-01-04T01:46:27;8.60;99.90
6758;DHT22;3416;53.074;8.822;2023-01-04T01:48:59;8.70;99.90
6758;DHT22;3416;53.074;8.822;2023-01-04T01:51:27;8.70;99.90
6758;DHT22;3416;53.074;8.822;2023-01-04T01:54:00;8.70;99.90
6758;DHT22;3416;53.074;8.822;2023-01-04T01:56:32;8.80;99.90
6758;DHT22;3416;53.074;8.822;2023-01-04T01:59:02;8.80;99.90
6758;DHT22;3416;53.074;8.822;2023-01-04T02:01:29;8.80;99.90
6758;DHT22;3416;53.074;8.822;2023-01-04T02:03:57;8.80;99.90
6758;DHT22;3416;53.074;8.822;2023-01-04T02:06:28;8.80;99.90
6758;DHT22;3416;53.074;8.822;2023-01-04T02:08:57;8.90;99.90
6758;DHT22;3416;53.074;8.822;2023-01-04T02:11:25;8.90;99.90
6758;DHT22;3416;53.074;8.822;2023-01-04T02:13:55;9.00;99.90
6758;DHT22;3416;53.074;8.822;2023-01-04T02:16:52;9.00;99.90
6758;DHT22;3416;53.074;8.822;2023-01-04T02:19:41;9.00;99.90
6758;DHT22;3416;53.074;8.822;2023-01-04T02:22:38;9.00;99.90
6758;DHT22;3416;53.074;8.822;2023-01-04T02:28:14;8.90;99.90
6758;DHT22;3416;53.074;8.822;2023-01-04T02:34:00;9.00;99.90
6758;DHT22;3416;53.074;8.822;2023-01-04T02:36:33;9.00;99.90
6758;DHT22;3416;53.074;8.822;2023-01-04T02:39:12;9.00;99.90
6758;DHT22;3416;53.074;8.822;2023-01-04T02:41:46;9.20;99.90
6758;DHT22;3416;53.074;8.822;2023-01-04T02:44:16;9.10;99.90
6758;DHT22;3416;53.074;8.822;2023-01-04T02:47:03;9.10;99.90
6758;DHT22;3416;53.074;8.822;2023-01-04T02:49:33;9.10;99.90
6758;DHT22;3416;53.074;8.822;2023-01-04T02:52:18;9.20;99.90
6758;DHT22;3416;53.074;8.822;2023-01-04T02:54:48;9.20;99.90
6758;DHT22;3416;53.074;8.822;2023-01-04T02:57:34;9.10;99.90
6758;DHT22;3416;53.074;8.822;2023-01-04T03:00:21;9.00;99.90
6758;DHT22;3416;53.074;8.822;2023-01-04T03:03:01;9.10;99.90
6758;DHT22;3416;53.074;8.822;2023-01-04T03:05:57;9.00;99.90
6758;DHT22;3416;53.074;8.822;2023-01-04T03:08:48;9.00;99.90
6758;DHT22;3416;53.074;8.822;2023-01-04T03:11:23;9.00;99.90
6758;DHT22;3416;53.074;8.822;2023-01-04T03:14:14;8.90;99.90
6758;DHT22;3416;53.074;8.822;2023-01-04T03:16:44;8.90;99.90
6758;DHT22;3416;53.074;8.822;2023-01-04T03:19:13;8.90;99.90
6758;DHT22;3416;53.074;8.822;2023-01-04T03:22:02;8.80;99.90
6758;DHT22;3416;53.074;8.822;2023-01-04T03:24:32;8.80;99.90
6758;DHT22;3416;53.074;8.822;2023-01-04T03:27:16;8.80;99.90
6758;DHT22;3416;53.074;8.822;2023-01-04T03:30:05;8.80;99.90
6758;DHT22;3416;53.074;8.822;2023-01-04T03:32:55;8.80;99.90
6758;DHT22;3416;53.074;8.822;2023-01-04T03:35:44;8.70;99.90
6758;DHT22;3416;53.074;8.822;2023-01-04T03:38:17;8.60;99.90
6758;DHT22;3416;53.074;8.822;2023-01-04T03:41:13;8.60;99.90
6758;DHT22;3416;53.074;8.822;2023-01-04T03:44:05;8.60;99.90
6758;DHT22;3416;53.074;8.822;2023-01-04T03:46:56;8.50;99.90
6758;DHT22;3416;53.074;8.822;2023-01-04T03:49:46;8.50;99.90
6758;DHT22;3416;53.074;8.822;2023-01-04T03:52:15;8.50;99.90
6758;DHT22;3416;53.074;8.822;2023-01-04T03:54:47;8.50;99.90
6758;DHT22;3416;53.074;8.822;2023-01-04T03:57:15;8.50;99.90
6758;DHT22;3416;53.074;8.822;2023-01-04T03:59:46;8.40;99.90
6758;DHT22;3416;53.074;8.822;2023-01-04T04:02:15;8.40;99.90
6758;DHT22;3416;53.074;8.822;2023-01-04T04:04:44;8.40;99.90
6758;DHT22;3416;53.074;8.822;2023-01-04T04:07:29;8.50;99.90
6758;DHT22;3416;53.074;8.822;2023-01-04T04:10:15;8.50;99.90
6758;DHT22;3416;53.074;8.822;2023-01-04T04:12:42;8.40;99.90
6758;DHT22;3416;53.074;8.822;2023-01-04T04:15:09;8.40;99.90
6758;DHT22;3416;53.074;8.822;2023-01-04T04:17:38;8.30;99.90
6758;DHT22;3416;53.074;8.822;2023-01-04T04:20:05;8.40;99.90
6758;DHT22;3416;53.074;8.822;2023-01-04T04:22:32;8.30;99.90
6758;DHT22;3416;53.074;8.822;2023-01-04T04:24:59;8.40;99.90
6758;DHT22;3416;53.074;8.822;2023-01-04T04:27:28;8.30;99.90
6758;DHT22;3416;53.074;8.822;2023-01-04T04:29:54;8.30;99.90
6758;DHT22;3416;53.074;8.822;2023-01-04T04:32:21;8.30;99.90
6758;DHT22;3416;53.074;8.822;2023-01-04T04:34:49;8.30;99.90
6758;DHT22;3416;53.074;8.822;2023-01-04T04:37:16;8.40;99.90
6758;DHT22;3416;53.074;8.822;2023-01-04T04:39:43;8.40;99.90
6758;DHT22;3416;53.074;8.822;2023-01-04T04:42:10;8.30;99.90
6758;DHT22;3416;53.074;8.822;2023-01-04T04:44:37;8.40;99.90
6758;DHT22;3416;53.074;8.822;2023-01-04T04:47:04;8.40;99.90
6758;DHT22;3416;53.074;8.822;2023-01-04T04:49:31;8.50;99.90
6758;DHT22;3416;53.074;8.822;2023-01-04T04:51:58;8.40;99.90
6758;DHT22;3416;53.074;8.822;2023-01-04T04:54:25;8.50;99.90
6758;DHT22;3416;53.074;8.822;2023-01-04T04:56:52;8.50;99.90
6758;DHT22;3416;53.074;8.822;2023-01-04T04:59:20;8.50;99.90
6758;DHT22;3416;53.074;8.822;2023-01-04T05:01:48;8.50;99.90
6758;DHT22;3416;53.074;8.822;2023-01-04T05:04:15;8.50;99.90
6758;DHT22;3416;53.074;8.822;2023-01-04T05:06:44;8.50;99.90
6758;DHT22;3416;53.074;8.822;2023-01-04T05:09:12;8.50;99.90
6758;DHT22;3416;53.074;8.822;2023-01-04T05:11:39;8.60;99.90
6758;DHT22;3416;53.074;8.822;2023-01-04T05:14:24;8.60;99.90
6758;DHT22;3416;53.074;8.822;2023-01-04T05:16:53;8.60;99.90
6758;DHT22;3416;53.074;8.822;2023-01-04T05:19:20;8.60;99.90
6758;DHT22;3416;53.074;8.822;2023-01-04T05:21:47;8.60;99.90
6758;DHT22;3416;53.074;8.822;2023-01-04T05:24:14;8.60;99.90
6758;DHT22;3416;53.074;8.822;2023-01-04T05:26:41;8.70;99.90
6758;DHT22;3416;53.074;8.822;2023-01-04T05:29:08;8.70;99.90
6758;DHT22;3416;53.074;8.822;2023-01-04T05:31:56;8.70;99.90
6758;DHT22;3416;53.074;8.822;2023-01-04T05:34:23;8.80;99.90
6758;DHT22;3416;53.074;8.822;2023-01-04T05:36:50;8.80;99.90
6758;DHT22;3416;53.074;8.822;2023-01-04T05:39:17;8.90;99.90
6758;DHT22;3416;53.074;8.822;2023-01-04T05:41:43;8.90;99.90
6758;DHT22;3416;53.074;8.822;2023-01-04T05:44:28;8.90;99.90
6758;DHT22;3416;53.074;8.822;2023-01-04T05:46:56;8.90;99.90
6758;DHT22;3416;53.074;8.822;2023-01-04T05:49:23;9.10;99.90
6758;DHT22;3416;53.074;8.822;2023-01-04T05:51:50;9.10;99.90
6758;DHT22;3416;53.074;8.822;2023-01-04T05:54:17;9.10;99.90
6758;DHT22;3416;53.074;8.822;2023-01-04T05:56:44;9.10;99.90
6758;DHT22;3416;53.074;8.822;2023-01-04T05:59:12;9.10;99.90
6758;DHT22;3416;53.074;8.822;2023-01-04T06:01:40;9.10;99.90
6758;DHT22;3416;53.074;8.822;2023-01-04T06:04:09;9.20;99.90
6758;DHT22;3416;53.074;8.822;2023-01-04T06:06:35;9.20;99.90
6758;DHT22;3416;53.074;8.822;2023-01-04T06:09:02;9.20;99.90
6758;DHT22;3416;53.074;8.822;2023-01-04T06:11:29;9.10;99.90
6758;DHT22;3416;53.074;8.822;2023-01-04T06:13:56;9.30;99.90
6758;DHT22;3416;53.074;8.822;2023-01-04T06:16:23;9.40;99.90
6758;DHT22;3416;53.074;8.822;2023-01-04T06:18:50;9.40;99.90
6758;DHT22;3416;53.074;8.822;2023-01-04T06:21:18;9.40;99.90
6758;DHT22;3416;53.074;8.822;2023-01-04T06:23:45;9.50;99.90
6758;DHT22;3416;53.074;8.822;2023-01-04T06:26:12;9.50;99.90
6758;DHT22;3416;53.074;8.822;2023-01-04T06:28:39;9.50;99.90
6758;DHT22;3416;53.074;8.822;2023-01-04T06:31:08;9.50;99.90
6758;DHT22;3416;53.074;8.822;2023-01-04T06:33:36;9.50;99.90
6758;DHT22;3416;53.074;8.822;2023-01-04T06:36:05;9.50;99.90
6758;DHT22;3416;53.074;8.822;2023-01-04T06:38:34;9.60;99.90
6758;DHT22;3416;53.074;8.822;2023-01-04T06:41:00;9.60;99.90
6758;DHT22;3416;53.074;8.822;2023-01-04T06:43:27;9.70;99.90
6758;DHT22;3416;53.074;8.822;2023-01-04T06:45:57;9.70;99.90
6758;DHT22;3416;53.074;8.822;2023-01-04T06:48:26;9.80;99.90
6758;DHT22;3416;53.074;8.822;2023-01-04T06:50:52;9.80;99.90
6758;DHT22;3416;53.074;8.822;2023-01-04T06:53:19;9.90;99.90
6758;DHT22;3416;53.074;8.822;2023-01-04T06:55:48;9.90;99.90
6758;DHT22;3416;53.074;8.822;2023-01-04T06:58:15;10.00;99.90
6758;DHT22;3416;53.074;8.822;2023-01-04T07:00:43;10.00;99.90
6758;DHT22;3416;53.074;8.822;2023-01-04T07:03:10;10.10;99.90
6758;DHT22;3416;53.074;8.822;2023-01-04T07:05:37;10.10;99.90
6758;DHT22;3416;53.074;8.822;2023-01-04T07:08:04;10.10;99.90
6758;DHT22;3416;53.074;8.822;2023-01-04T07:10:33;10.10;99.90
6758;DHT22;3416;53.074;8.822;2023-01-04T07:13:02;10.20;99.90
6758;DHT22;3416;53.074;8.822;2023-01-04T07:15:29;10.20;99.90
6758;DHT22;3416;53.074;8.822;2023-01-04T07:17:56;10.20;99.90
6758;DHT22;3416;53.074;8.822;2023-01-04T07:20:23;10.20;99.90
6758;DHT22;3416;53.074;8.822;2023-01-04T07:22:50;10.20;99.90
6758;DHT22;3416;53.074;8.822;2023-01-04T07:25:17;10.20;99.90
6758;DHT22;3416;53.074;8.822;2023-01-04T07:27:49;10.20;99.90
6758;DHT22;3416;53.074;8.822;2023-01-04T07:30:18;10.20;99.90
6758;DHT22;3416;53.074;8.822;2023-01-04T07:32:45;10.30;99.90
6758;DHT22;3416;53.074;8.822;2023-01-04T07:35:12;10.30;99.90
6758;DHT22;3416;53.074;8.822;2023-01-04T07:37:40;10.30;99.90
6758;DHT22;3416;53.074;8.822;2023-01-04T07:40:14;10.30;99.90
6758;DHT22;3416;53.074;8.822;2023-01-04T07:42:41;10.30;99.90
6758;DHT22;3416;53.074;8.822;2023-01-04T07:45:08;10.30;99.90
6758;DHT22;3416;53.074;8.822;2023-01-04T07:47:36;10.40;99.90
6758;DHT22;3416;53.074;8.822;2023-01-04T07:50:04;10.40;99.90
6758;DHT22;3416;53.074;8.822;2023-01-04T07:52:31;10.40;99.90
6758;DHT22;3416;53.074;8.822;2023-01-04T07:54:58;10.40;99.90
6758;DHT22;3416;53.074;8.822;2023-01-04T07:57:24;10.40;99.90
6758;DHT22;3416;53.074;8.822;2023-01-04T07:59:52;10.40;99.90
6758;DHT22;3416;53.074;8.822;2023-01-04T08:02:19;10.40;99.90
6758;DHT22;3416;53.074;8.822;2023-01-04T08:04:48;10.40;99.90
6758;DHT22;3416;53.074;8.822;2023-01-04T08:07:15;10.40;99.90
6758;DHT22;3416;53.074;8.822;2023-01-04T08:09:41;10.50;99.90
6758;DHT22;3416;53.074;8.822;2023-01-04T08:12:09;10.50;99.90
6758;DHT22;3416;53.074;8.822;2023-01-04T08:14:36;10.50;99.90
6758;DHT22;3416;53.074;8.822;2023-01-04T08:17:04;10.50;99.90
6758;DHT22;3416;53.074;8.822;2023-01-04T08:19:31;10.50;99.90
6758;DHT22;3416;53.074;8.822;2023-01-04T08:21:59;10.50;99.90
6758;DHT22;3416;53.074;8.822;2023-01-04T08:24:26;10.50;99.90
6758;DHT22;3416;53.074;8.822;2023-01-04T08:26:54;10.60;99.90
6758;DHT22;3416;53.074;8.822;2023-01-04T08:29:22;10.60;99.90
6758;DHT22;3416;53.074;8.822;2023-01-04T08:31:49;10.60;99.90
6758;DHT22;3416;53.074;8.822;2023-01-04T08:34:16;10.60;99.90
6758;DHT22;3416;53.074;8.822;2023-01-04T08:36:45;10.60;99.90
6758;DHT22;3416;53.074;8.822;2023-01-04T08:39:14;10.60;99.90
6758;DHT22;3416;53.074;8.822;2023-01-04T08:41:41;10.70;99.90
6758;DHT22;3416;53.074;8.822;2023-01-04T08:44:19;10.70;99.90
6758;DHT22;3416;53.074;8.822;2023-01-04T08:46:46;10.70;99.90
6758;DHT22;3416;53.074;8.822;2023-01-04T08:49:14;10.80;99.90
6758;DHT22;3416;53.074;8.822;2023-01-04T08:51:41;10.80;99.90
6758;DHT22;3416;53.074;8.822;2023-01-04T08:54:08;10.80;99.90
6758;DHT22;3416;53.074;8.822;2023-01-04T08:56:37;10.80;99.90
6758;DHT22;3416;53.074;8.822;2023-01-04T08:59:04;10.80;99.90
6758;DHT22;3416;53.074;8.822;2023-01-04T09:01:32;10.90;99.90
6758;DHT22;3416;53.074;8.822;2023-01-04T09:04:00;10.90;99.90
6758;DHT22;3416;53.074;8.822;2023-01-04T09:06:27;10.90;99.90
6758;DHT22;3416;53.074;8.822;2023-01-04T09:08:55;10.90;99.90
6758;DHT22;3416;53.074;8.822;2023-01-04T09:11:23;11.00;99.90
6758;DHT22;3416;53.074;8.822;2023-01-04T09:13:55;11.00;99.90
6758;DHT22;3416;53.074;8.822;2023-01-04T09:16:22;11.00;99.90
6758;DHT22;3416;53.074;8.822;2023-01-04T09:18:49;11.00;99.90
6758;DHT22;3416;53.074;8.822;2023-01-04T09:21:18;11.10;99.90
6758;DHT22;3416;53.074;8.822;2023-01-04T09:23:46;11.10;99.90
6758;DHT22;3416;53.074;8.822;2023-01-04T09:26:14;11.10;99.90
6758;DHT22;3416;53.074;8.822;2023-01-04T09:28:41;11.10;99.90
6758;DHT22;3416;53.074;8.822;2023-01-04T09:31:12;11.10;99.90
6758;DHT22;3416;53.074;8.822;2023-01-04T09:33:39;11.20;99.90
6758;DHT22;3416;53.074;8.822;2023-01-04T09:36:09;11.10;99.90
6758;DHT22;3416;53.074;8.822;2023-01-04T09:38:38;11.10;99.90
6758;DHT22;3416;53.074;8.822;2023-01-04T09:41:17;11.10;99.90
6758;DHT22;3416;53.074;8.822;2023-01-04T09:43:47;11.10;99.90
6758;DHT22;3416;53.074;8.822;2023-01-04T09:46:28;11.10;99.90
6758;DHT22;3416;53.074;8.822;2023-01-04T09:49:04;11.10;99.90
6758;DHT22;3416;53.074;8.822;2023-01-04T09:51:38;11.20;99.90
6758;DHT22;3416;53.074;8.822;2023-01-04T09:54:10;11.20;99.90
6758;DHT22;3416;53.074;8.822;2023-01-04T09:56:45;11.20;99.90
6758;DHT22;3416;53.074;8.822;2023-01-04T09:59:16;11.20;99.90
6758;DHT22;3416;53.074;8.822;2023-01-04T10:01:50;11.30;99.90
6758;DHT22;3416;53.074;8.822;2023-01-04T10:04:23;11.30;99.90
6758;DHT22;3416;53.074;8.822;2023-01-04T10:06:52;11.30;99.90
6758;DHT22;3416;53.074;8.822;2023-01-04T10:09:19;11.30;99.90
6758;DHT22;3416;53.074;8.822;2023-01-04T10:12:04;11.30;99.90
6758;DHT22;3416;53.074;8.822;2023-01-04T10:14:47;11.20;99.90
6758;DHT22;3416;53.074;8.822;2023-01-04T10:17:28;11.20;99.90
6758;DHT22;3416;53.074;8.822;2023-01-04T10:20:16;11.30;99.90
6758;DHT22;3416;53.074;8.822;2023-01-04T10:22:49;11.30;99.90
6758;DHT22;3416;53.074;8.822;2023-01-04T10:25:23;11.30;99.90
6758;DHT22;3416;53.074;8.822;2023-01-04T10:28:02;11.30;99.90
6758;DHT22;3416;53.074;8.822;2023-01-04T10:30:37;11.40;99.90
6758;DHT22;3416;53.074;8.822;2023-01-04T10:33:11;11.40;99.90
6758;DHT22;3416;53.074;8.822;2023-01-04T10:35:38;11.40;99.90
6758;DHT22;3416;53.074;8.822;2023-01-04T10:38:15;11.30;99.90
6758;DHT22;3416;53.074;8.822;2023-01-04T10:40:45;11.40;99.90
6758;DHT22;3416;53.074;8.822;2023-01-04T10:43:21;11.30;99.90
6758;DHT22;3416;53.074;8.822;2023-01-04T10:45:58;11.40;99.90
6758;DHT22;3416;53.074;8.822;2023-01-04T10:48:35;11.40;99.90
6758;DHT22;3416;53.074;8.822;2023-01-04T10:51:05;11.40;99.90
6758;DHT22;3416;53.074;8.822;2023-01-04T10:53:37;11.40;99.90
6758;DHT22;3416;53.074;8.822;2023-01-04T10:56:11;11.40;99.90
6758;DHT22;3416;53.074;8.822;2023-01-04T10:58:45;11.40;99.90
6758;DHT22;3416;53.074;8.822;2023-01-04T11:01:17;11.40;99.90
6758;DHT22;3416;53.074;8.822;2023-01-04T11:03:52;11.50;99.90
6758;DHT22;3416;53.074;8.822;2023-01-04T11:06:26;11.50;99.90
6758;DHT22;3416;53.074;8.822;2023-01-04T11:08:58;11.50;99.90
6758;DHT22;3416;53.074;8.822;2023-01-04T11:11:31;11.50;99.90
6758;DHT22;3416;53.074;8.822;2023-01-04T11:14:00;11.50;99.90
6758;DHT22;3416;53.074;8.822;2023-01-04T11:16:31;11.60;99.90
6758;DHT22;3416;53.074;8.822;2023-01-04T11:19:00;11.60;99.90
6758;DHT22;3416;53.074;8.822;2023-01-04T11:21:34;11.60;99.90
6758;DHT22;3416;53.074;8.822;2023-01-04T11:24:05;11.60;99.90
6758;DHT22;3416;53.074;8.822;2023-01-04T11:26:36;11.60;99.90
6758;DHT22;3416;53.074;8.822;2023-01-04T11:29:14;11.70;99.90
6758;DHT22;3416;53.074;8.822;2023-01-04T11:31:51;11.70;99.90
6758;DHT22;3416;53.074;8.822;2023-01-04T11:34:57;11.70;99.90
6758;DHT22;3416;53.074;8.822;2023-01-04T11:37:29;11.70;99.90
6758;DHT22;3416;53.074;8.822;2023-01-04T11:40:25;11.70;99.90
6758;DHT22;3416;53.074;8.822;2023-01-04T11:43:10;11.70;99.90
6758;DHT22;3416;53.074;8.822;2023-01-04T11:45:38;11.70;99.90
6758;DHT22;3416;53.074;8.822;2023-01-04T11:48:05;11.70;99.90
6758;DHT22;3416;53.074;8.822;2023-01-04T11:50:37;11.70;99.90
6758;DHT22;3416;53.074;8.822;2023-01-04T11:53:23;11.70;99.90
6758;DHT22;3416;53.074;8.822;2023-01-04T11:55:50;11.70;99.90
6758;DHT22;3416;53.074;8.822;2023-01-04T11:58:18;11.70;99.90
6758;DHT22;3416;53.074;8.822;2023-01-04T12:00:51;11.70;99.90
6758;DHT22;3416;53.074;8.822;2023-01-04T12:03:24;11.70;99.90
6758;DHT22;3416;53.074;8.822;2023-01-04T12:05:53;11.70;99.90
6758;DHT22;3416;53.074;8.822;2023-01-04T12:08:28;11.70;99.90
6758;DHT22;3416;53.074;8.822;2023-01-04T12:10:55;11.70;99.90
6758;DHT22;3416;53.074;8.822;2023-01-04T12:13:23;11.70;99.90
6758;DHT22;3416;53.074;8.822;2023-01-04T12:16:00;11.70;99.90
6758;DHT22;3416;53.074;8.822;2023-01-04T12:18:34;11.70;99.90
6758;DHT22;3416;53.074;8.822;2023-01-04T12:21:03;11.80;99.90
6758;DHT22;3416;53.074;8.822;2023-01-04T12:23:32;11.80;99.90
6758;DHT22;3416;53.074;8.822;2023-01-04T12:26:00;11.80;99.90
6758;DHT22;3416;53.074;8.822;2023-01-04T12:28:31;11.90;99.90
6758;DHT22;3416;53.074;8.822;2023-01-04T12:31:29;11.90;99.90
6758;DHT22;3416;53.074;8.822;2023-01-04T12:33:57;11.90;99.90
6758;DHT22;3416;53.074;8.822;2023-01-04T12:36:57;12.00;99.90
6758;DHT22;3416;53.074;8.822;2023-01-04T12:39:29;12.00;99.90
6758;DHT22;3416;53.074;8.822;2023-01-04T12:42:18;12.00;99.90
6758;DHT22;3416;53.074;8.822;2023-01-04T12:45:16;12.00;99.90
6758;DHT22;3416;53.074;8.822;2023-01-04T12:47:47;12.00;99.90
6758;DHT22;3416;53.074;8.822;2023-01-04T12:50:31;12.00;99.90
6758;DHT22;3416;53.074;8.822;2023-01-04T12:53:48;12.00;99.90
6758;DHT22;3416;53.074;8.822;2023-01-04T12:56:16;12.00;99.90
6758;DHT22;3416;53.074;8.822;2023-01-04T12:59:05;12.00;99.90
6758;DHT22;3416;53.074;8.822;2023-01-04T13:01:32;12.00;99.90
6758;DHT22;3416;53.074;8.822;2023-01-04T13:04:03;12.10;99.90
6758;DHT22;3416;53.074;8.822;2023-01-04T13:06:50;12.00;99.90
6758;DHT22;3416;53.074;8.822;2023-01-04T13:09:20;12.10;99.90
6758;DHT22;3416;53.074;8.822;2023-01-04T13:12:02;12.10;99.90
6758;DHT22;3416;53.074;8.822;2023-01-04T13:14:36;12.10;99.90
6758;DHT22;3416;53.074;8.822;2023-01-04T13:17:17;12.20;99.90
6758;DHT22;3416;53.074;8.822;2023-01-04T13:19:46;12.30;99.90
6758;DHT22;3416;53.074;8.822;2023-01-04T13:22:20;12.30;99.90
6758;DHT22;3416;53.074;8.822;2023-01-04T13:24:49;12.30;99.90
6758;DHT22;3416;53.074;8.822;2023-01-04T13:27:18;12.30;99.90
6758;DHT22;3416;53.074;8.822;2023-01-04T13:29:47;12.30;99.90
6758;DHT22;3416;53.074;8.822;2023-01-04T13:32:20;12.30;99.90
6758;DHT22;3416;53.074;8.822;2023-01-04T13:34:51;12.30;99.90
6758;DHT22;3416;53.074;8.822;2023-01-04T13:37:25;12.30;99.90
6758;DHT22;3416;53.074;8.822;2023-01-04T13:42:45;12.30;99.90
6758;DHT22;3416;53.074;8.822;2023-01-04T13:45:33;12.30;99.90
6758;DHT22;3416;53.074;8.822;2023-01-04T13:48:04;12.30;99.90
6758;DHT22;3416;53.074;8.822;2023-01-04T13:50:36;12.20;99.90
6758;DHT22;3416;53.074;8.822;2023-01-04T13:53:04;12.20;99.90
6758;DHT22;3416;53.074;8.822;2023-01-04T13:55:36;12.20;99.90
6758;DHT22;3416;53.074;8.822;2023-01-04T13:58:04;12.20;99.90
6758;DHT22;3416;53.074;8.822;2023-01-04T14:00:35;12.20;99.90
6758;DHT22;3416;53.074;8.822;2023-01-04T14:03:14;12.10;99.90
6758;DHT22;3416;53.074;8.822;2023-01-04T14:05:45;12.20;99.90
6758;DHT22;3416;53.074;8.822;2023-01-04T14:08:17;12.20;99.90
6758;DHT22;3416;53.074;8.822;2023-01-04T14:10:47;12.10;99.90
6758;DHT22;3416;53.074;8.822;2023-01-04T14:13:15;12.20;99.90
6758;DHT22;3416;53.074;8.822;2023-01-04T14:15:43;12.20;99.90
6758;DHT22;3416;53.074;8.822;2023-01-04T14:18:24;12.10;99.90
6758;DHT22;3416;53.074;8.822;2023-01-04T14:20:52;12.10;99.90
6758;DHT22;3416;53.074;8.822;2023-01-04T14:23:32;12.10;99.90
6758;DHT22;3416;53.074;8.822;2023-01-04T14:26:01;12.10;99.90
6758;DHT22;3416;53.074;8.822;2023-01-04T14:28:36;12.10;99.90
6758;DHT22;3416;53.074;8.822;2023-01-04T14:34:11;12.10;99.90
6758;DHT22;3416;53.074;8.822;2023-01-04T14:36:41;12.20;99.90
6758;DHT22;3416;53.074;8.822;2023-01-04T14:39:31;12.20;99.90
6758;DHT22;3416;53.074;8.822;2023-01-04T14:42:01;12.00;99.90
6758;DHT22;3416;53.074;8.822;2023-01-04T14:44:30;12.20;99.90
6758;DHT22;3416;53.074;8.822;2023-01-04T14:47:01;12.10;99.90
6758;DHT22;3416;53.074;8.822;2023-01-04T14:49:30;12.10;99.90
6758;DHT22;3416;53.074;8.822;2023-01-04T14:51:58;12.20;99.90
6758;DHT22;3416;53.074;8.822;2023-01-04T14:54:27;12.10;99.90
6758;DHT22;3416;53.074;8.822;2023-01-04T14:56:57;12.20;99.90
6758;DHT22;3416;53.074;8.822;2023-01-04T14:59:26;12.10;99.90
6758;DHT22;3416;53.074;8.822;2023-01-04T15:01:55;12.10;99.90
6758;DHT22;3416;53.074;8.822;2023-01-04T15:04:22;12.00;99.90
6758;DHT22;3416;53.074;8.822;2023-01-04T15:06:51;12.00;99.90
6758;DHT22;3416;53.074;8.822;2023-01-04T15:09:18;12.00;99.90
6758;DHT22;3416;53.074;8.822;2023-01-04T15:11:48;12.00;99.90
6758;DHT22;3416;53.074;8.822;2023-01-04T15:14:16;12.00;99.90
6758;DHT22;3416;53.074;8.822;2023-01-04T15:16:44;11.90;99.90
6758;DHT22;3416;53.074;8.822;2023-01-04T15:19:13;11.90;99.90
6758;DHT22;3416;53.074;8.822;2023-01-04T15:21:40;11.90;99.90
6758;DHT22;3416;53.074;8.822;2023-01-04T15:24:09;11.90;99.90
6758;DHT22;3416;53.074;8.822;2023-01-04T15:26:39;11.90;99.90
6758;DHT22;3416;53.074;8.822;2023-01-04T15:29:06;11.90;99.90
6758;DHT22;3416;53.074;8.822;2023-01-04T15:31:34;11.90;99.90
6758;DHT22;3416;53.074;8.822;2023-01-04T15:34:03;11.80;99.90
6758;DHT22;3416;53.074;8.822;2023-01-04T15:36:30;11.80;99.90
6758;DHT22;3416;53.074;8.822;2023-01-04T15:38:57;11.80;99.90
6758;DHT22;3416;53.074;8.822;2023-01-04T15:41:24;11.90;99.90
6758;DHT22;3416;53.074;8.822;2023-01-04T15:44:09;11.90;99.90
6758;DHT22;3416;53.074;8.822;2023-01-04T15:46:36;11.90;99.90
6758;DHT22;3416;53.074;8.822;2023-01-04T15:49:04;11.90;99.90
6758;DHT22;3416;53.074;8.822;2023-01-04T15:51:32;11.90;99.90
6758;DHT22;3416;53.074;8.822;2023-01-04T15:54:00;11.90;99.90
6758;DHT22;3416;53.074;8.822;2023-01-04T15:56:27;11.90;99.90
6758;DHT22;3416;53.074;8.822;2023-01-04T15:58:55;11.90;99.90
6758;DHT22;3416;53.074;8.822;2023-01-04T16:01:22;11.90;99.90
6758;DHT22;3416;53.074;8.822;2023-01-04T16:03:49;11.90;99.90
6758;DHT22;3416;53.074;8.822;2023-01-04T16:06:18;11.80;99.90
6758;DHT22;3416;53.074;8.822;2023-01-04T16:08:45;11.80;99.90
6758;DHT22;3416;53.074;8.822;2023-01-04T16:11:15;11.90;99.90
6758;DHT22;3416;53.074;8.822;2023-01-04T16:13:43;11.80;99.90
6758;DHT22;3416;53.074;8.822;2023-01-04T16:16:10;11.80;99.90
6758;DHT22;3416;53.074;8.822;2023-01-04T16:18:37;11.90;99.90
6758;DHT22;3416;53.074;8.822;2023-01-04T16:21:07;11.90;99.90
6758;DHT22;3416;53.074;8.822;2023-01-04T16:23:36;11.90;99.90
6758;DHT22;3416;53.074;8.822;2023-01-04T16:26:06;11.90;99.90
6758;DHT22;3416;53.074;8.822;2023-01-04T16:28:34;11.90;99.90
6758;DHT22;3416;53.074;8.822;2023-01-04T16:31:01;11.90;99.90
6758;DHT22;3416;53.074;8.822;2023-01-04T16:33:28;11.90;99.90
6758;DHT22;3416;53.074;8.822;2023-01-04T16:36:00;11.90;99.90
6758;DHT22;3416;53.074;8.822;2023-01-04T16:38:27;11.90;99.90
6758;DHT22;3416;53.074;8.822;2023-01-04T16:40:57;11.80;99.90
6758;DHT22;3416;53.074;8.822;2023-01-04T16:43:25;11.80;99.90
6758;DHT22;3416;53.074;8.822;2023-01-04T16:46:14;11.80;99.90